Time;durP1;ratioP1;P1;durP2;ratioP2;P2;SDS_P1;SDS_P2;PMS_P1;PMS_P2;Temp;Humidity;BMP_temperature;BMP_pressure;BME280_temperature;BME280_humidity;BME280_pressure;Samples;Min_cycle;Max_cycle;Signal;HPM_P1;HPM_P2
2020/12/10 00:02:18;;;;;;;45.53;25.73;;;3.00;99.90;;;;;;5087993;28;20738;-77
2020/12/10 00:04:45;;;;;;;44.47;26.33;;;3.00;99.90;;;;;;5087582;28;20191;-77
2020/12/10 00:07:21;;;;;;;46.43;26.47;;;3.10;99.90;;;;;;5087975;28;20202;-77
2020/12/10 00:09:50;;;;;;;44.30;27.00;;;3.00;99.90;;;;;;5087747;28;20191;-76
2020/12/10 00:12:21;;;;;;;44.10;26.40;;;3.00;99.90;;;;;;5084973;28;20211;-78
2020/12/10 00:14:53;;;;;;;48.77;27.33;;;3.00;99.90;;;;;;5088105;28;20198;-78
2020/12/10 00:17:26;;;;;;;48.90;27.27;;;3.00;99.90;;;;;;5086484;28;20287;-78
2020/12/10 00:20:03;;;;;;;45.10;26.20;;;2.90;99.90;;;;;;5087799;28;20188;-77
2020/12/10 00:22:38;;;;;;;44.53;26.93;;;2.90;99.90;;;;;;5086027;28;20280;-76
2020/12/10 00:25:09;;;;;;;52.77;28.53;;;2.90;99.90;;;;;;5086520;28;20192;-76
2020/12/10 00:27:43;;;;;;;48.03;28.03;;;2.90;99.90;;;;;;5087998;28;20446;-76
2020/12/10 00:30:18;;;;;;;47.73;26.90;;;2.90;99.90;;;;;;5087013;28;20238;-76
2020/12/10 00:32:47;;;;;;;49.57;27.97;;;2.90;99.90;;;;;;5086537;28;20203;-76
2020/12/10 00:35:18;;;;;;;48.83;28.63;;;2.90;99.90;;;;;;5091167;28;20203;-76
2020/12/10 00:37:49;;;;;;;45.23;27.77;;;2.90;99.90;;;;;;5091426;28;20203;-76
2020/12/10 00:40:15;;;;;;;51.10;28.60;;;2.90;99.90;;;;;;5091114;28;20227;-76
2020/12/10 00:42:44;;;;;;;48.63;28.70;;;2.90;99.90;;;;;;5090846;28;20753;-75
2020/12/10 00:45:13;;;;;;;46.83;28.20;;;2.80;99.90;;;;;;5091136;28;20202;-76
2020/12/10 00:47:42;;;;;;;48.97;27.63;;;2.80;99.90;;;;;;5091324;28;20510;-76
2020/12/10 00:50:09;;;;;;;47.73;27.27;;;2.80;99.90;;;;;;5091355;28;20635;-76
2020/12/10 00:52:45;;;;;;;51.17;29.13;;;2.80;99.90;;;;;;5090622;28;20337;-76
2020/12/10 00:55:14;;;;;;;42.97;26.13;;;2.70;99.90;;;;;;5089511;28;20213;-76
2020/12/10 00:57:50;;;;;;;47.33;27.53;;;2.80;99.90;;;;;;5091311;28;20609;-76
2020/12/10 01:00:17;;;;;;;48.77;28.23;;;2.80;99.90;;;;;;5090964;28;20301;-76
2020/12/10 01:02:44;;;;;;;47.30;27.27;;;2.80;99.90;;;;;;5091030;28;20242;-76
2020/12/10 01:05:10;;;;;;;49.33;28.50;;;2.80;99.90;;;;;;5090819;28;20206;-76
2020/12/10 01:07:40;;;;;;;51.87;28.17;;;2.80;99.90;;;;;;5090939;28;20199;-77
2020/12/10 01:10:07;;;;;;;52.23;29.70;;;2.80;99.90;;;;;;5090631;28;20211;-77
2020/12/10 01:12:34;;;;;;;51.70;28.93;;;2.70;99.90;;;;;;5090787;28;20249;-77
2020/12/10 01:15:01;;;;;;;53.67;29.90;;;2.70;99.90;;;;;;5090550;28;21018;-77
2020/12/10 01:17:27;;;;;;;57.13;29.80;;;2.70;99.90;;;;;;5090676;28;20202;-77
2020/12/10 01:19:54;;;;;;;51.90;30.07;;;2.70;99.90;;;;;;5090767;28;20564;-77
2020/12/10 01:22:20;;;;;;;56.30;30.03;;;2.70;99.90;;;;;;5089212;28;20665;-75
2020/12/10 01:24:56;;;;;;;54.90;30.77;;;2.70;99.90;;;;;;5090333;28;20652;-78
2020/12/10 01:27:25;;;;;;;55.37;30.97;;;2.70;99.90;;;;;;5090196;28;20194;-78
2020/12/10 01:29:54;;;;;;;58.80;30.83;;;2.80;99.90;;;;;;5090478;28;20202;-77
2020/12/10 01:32:24;;;;;;;56.97;30.73;;;2.80;99.90;;;;;;5090115;28;20760;-78
2020/12/10 01:34:52;;;;;;;54.97;30.33;;;2.70;99.90;;;;;;5090539;28;20598;-77
2020/12/10 01:37:18;;;;;;;56.93;31.50;;;2.80;99.90;;;;;;5090068;28;20205;-77
2020/12/10 01:39:45;;;;;;;55.13;31.90;;;2.70;99.90;;;;;;5090408;28;20293;-77
2020/12/10 01:42:12;;;;;;;55.87;31.33;;;2.70;99.90;;;;;;5089907;28;20254;-76
2020/12/10 01:44:39;;;;;;;56.30;31.13;;;2.70;99.90;;;;;;5089232;28;20206;-76
2020/12/10 01:47:08;;;;;;;56.63;31.63;;;2.70;99.90;;;;;;5090210;28;20230;-77
2020/12/10 01:49:37;;;;;;;57.13;30.27;;;2.70;99.90;;;;;;5090087;28;20246;-77
2020/12/10 01:52:05;;;;;;;56.27;30.77;;;2.70;99.90;;;;;;5090424;28;20266;-76
2020/12/10 01:54:32;;;;;;;55.27;31.17;;;2.70;99.90;;;;;;5089692;28;20712;-76
2020/12/10 01:56:59;;;;;;;56.13;30.40;;;2.70;99.90;;;;;;5089848;28;20206;-76
2020/12/10 01:59:25;;;;;;;55.33;30.17;;;2.70;99.90;;;;;;5089705;28;20970;-76
2020/12/10 02:01:53;;;;;;;55.30;29.77;;;2.70;99.90;;;;;;5090151;28;20289;-76
2020/12/10 02:04:30;;;;;;;60.73;30.77;;;2.70;99.90;;;;;;5089304;28;20917;-76
2020/12/10 02:06:57;;;;;;;57.27;30.33;;;2.70;99.90;;;;;;5089674;28;20211;-76
2020/12/10 02:09:26;;;;;;;65.93;32.30;;;2.60;99.90;;;;;;5089409;28;20232;-77
2020/12/10 02:11:54;;;;;;;62.50;33.37;;;2.60;99.90;;;;;;5089450;28;20286;-78
2020/12/10 02:14:21;;;;;;;61.67;31.93;;;2.60;99.90;;;;;;5089623;28;20298;-77
2020/12/10 02:16:57;;;;;;;66.43;31.77;;;2.50;99.90;;;;;;5089725;28;20234;-77
2020/12/10 02:19:23;;;;;;;60.60;31.70;;;2.50;99.90;;;;;;5089314;28;20290;-78
2020/12/10 02:21:50;;;;;;;57.40;30.73;;;2.50;99.90;;;;;;5089505;28;20483;-78
2020/12/10 02:24:18;;;;;;;58.03;29.63;;;2.50;99.90;;;;;;5089169;28;20228;-78
2020/12/10 02:26:48;;;;;;;56.33;29.40;;;2.50;99.90;;;;;;5089607;28;20915;-78
2020/12/10 02:29:18;;;;;;;56.27;30.13;;;2.50;99.90;;;;;;5089412;28;20630;-78
2020/12/10 02:31:45;;;;;;;54.07;28.10;;;2.50;99.90;;;;;;5089195;28;20260;-77
2020/12/10 02:34:11;;;;;;;57.07;29.37;;;2.50;99.90;;;;;;5089641;28;20230;-78
2020/12/10 02:36:38;;;;;;;57.87;30.67;;;2.50;99.90;;;;;;5089480;28;20555;-78
2020/12/10 02:39:08;;;;;;;60.10;31.30;;;2.60;99.90;;;;;;5089113;28;20267;-78
2020/12/10 02:41:37;;;;;;;62.13;30.93;;;2.50;99.90;;;;;;5089104;28;20207;-77
2020/12/10 02:44:05;;;;;;;60.40;30.20;;;2.50;99.90;;;;;;5088874;28;20230;-76
2020/12/10 02:46:32;;;;;;;58.67;31.17;;;2.50;99.90;;;;;;5089191;28;20231;-76
2020/12/10 02:49:02;;;;;;;61.93;32.63;;;2.50;99.90;;;;;;5089075;28;20665;-76
2020/12/10 02:51:29;;;;;;;56.67;29.87;;;2.50;99.90;;;;;;5088951;28;20226;-76
2020/12/10 02:53:55;;;;;;;65.00;31.60;;;2.50;99.90;;;;;;5088646;28;20268;-76
2020/12/10 02:56:25;;;;;;;59.03;30.67;;;2.50;99.90;;;;;;5087930;28;20307;-76
2020/12/10 02:58:52;;;;;;;52.30;28.07;;;2.50;99.90;;;;;;5088955;28;20242;-76
2020/12/10 03:01:19;;;;;;;54.77;29.17;;;2.50;99.90;;;;;;5088722;28;20198;-76
2020/12/10 03:03:48;;;;;;;56.13;28.80;;;2.40;99.90;;;;;;5089180;28;20322;-78
2020/12/10 03:06:15;;;;;;;54.13;30.13;;;2.50;99.90;;;;;;5089080;28;20282;-78
2020/12/10 03:08:41;;;;;;;50.00;28.27;;;2.40;99.90;;;;;;5088698;28;20785;-77
2020/12/10 03:11:08;;;;;;;57.23;29.37;;;2.50;99.90;;;;;;5089005;28;20286;-77
2020/12/10 03:13:34;;;;;;;58.13;29.00;;;2.50;99.90;;;;;;5088586;28;20251;-77
2020/12/10 03:16:06;;;;;;;51.10;28.97;;;2.50;99.90;;;;;;5089008;28;20256;-77
2020/12/10 03:18:33;;;;;;;53.27;27.57;;;2.50;99.90;;;;;;5088363;28;20235;-77
2020/12/10 03:20:59;;;;;;;57.03;29.10;;;2.50;99.90;;;;;;5088756;28;20756;-76
2020/12/10 03:23:28;;;;;;;53.80;28.20;;;2.40;99.90;;;;;;5088079;28;20730;-76
2020/12/10 03:25:55;;;;;;;57.77;29.10;;;2.40;99.90;;;;;;5088620;28;20564;-76
2020/12/10 03:28:21;;;;;;;49.67;28.27;;;2.40;99.90;;;;;;5088615;28;20256;-76
2020/12/10 03:30:49;;;;;;;52.37;28.40;;;2.40;99.90;;;;;;5088598;28;20267;-78
2020/12/10 03:33:16;;;;;;;52.17;28.70;;;2.40;99.90;;;;;;5088682;28;20203;-78
2020/12/10 03:35:45;;;;;;;54.70;28.60;;;2.40;99.90;;;;;;5088445;28;20306;-78
2020/12/10 03:38:11;;;;;;;54.50;28.13;;;2.40;99.90;;;;;;5088304;28;20289;-78
2020/12/10 03:40:40;;;;;;;55.77;29.77;;;2.30;99.90;;;;;;5088254;28;20207;-76
2020/12/10 03:43:07;;;;;;;55.13;29.00;;;2.30;99.90;;;;;;5088419;28;20226;-75
2020/12/10 03:45:34;;;;;;;55.77;29.63;;;2.30;99.90;;;;;;5088148;28;20234;-76
2020/12/10 03:48:00;;;;;;;53.97;27.93;;;2.30;99.90;;;;;;5088238;28;20256;-76
2020/12/10 03:50:27;;;;;;;55.97;28.33;;;2.20;99.90;;;;;;5088371;28;20246;-76
2020/12/10 03:52:59;;;;;;;50.77;27.07;;;2.20;99.90;;;;;;5087878;28;20390;-76
2020/12/10 03:55:26;;;;;;;53.63;28.60;;;2.20;99.90;;;;;;5088163;28;20191;-76
2020/12/10 03:57:56;;;;;;;55.77;28.63;;;2.20;99.90;;;;;;5088204;28;20203;-77
2020/12/10 04:00:22;;;;;;;52.77;27.47;;;2.20;99.90;;;;;;5087817;28;20207;-77
2020/12/10 04:02:51;;;;;;;52.60;28.07;;;2.20;99.90;;;;;;5088078;28;20292;-77
2020/12/10 04:05:23;;;;;;;50.57;27.70;;;2.20;99.90;;;;;;5088510;28;20210;-77
2020/12/10 04:07:50;;;;;;;53.67;28.13;;;2.20;99.90;;;;;;5088241;28;20199;-77
2020/12/10 04:10:17;;;;;;;51.90;27.33;;;2.20;99.90;;;;;;5092201;28;20295;-77
2020/12/10 04:12:45;;;;;;;56.53;28.83;;;2.20;99.90;;;;;;5091903;28;20203;-77
2020/12/10 04:15:14;;;;;;;60.13;28.90;;;2.30;99.90;;;;;;5092335;28;20249;-77
2020/12/10 04:17:45;;;;;;;52.77;27.03;;;2.30;99.90;;;;;;5091696;28;20221;-77
2020/12/10 04:20:11;;;;;;;54.53;27.70;;;2.30;99.90;;;;;;5091733;28;20585;-77
2020/12/10 04:22:38;;;;;;;52.30;27.60;;;2.30;99.90;;;;;;5091806;28;20294;-77
2020/12/10 04:25:24;;;;;;;53.10;26.97;;;2.20;99.90;;;;;;5091956;28;20218;-77
2020/12/10 04:27:50;;;;;;;60.10;29.23;;;2.20;99.90;;;;;;5091208;28;20743;-77
2020/12/10 04:30:20;;;;;;;53.53;26.33;;;2.20;99.90;;;;;;5091547;28;20665;-77
2020/12/10 04:32:50;;;;;;;50.43;26.47;;;2.20;99.90;;;;;;5090257;28;20250;-77
2020/12/10 04:35:18;;;;;;;54.83;27.80;;;2.20;99.90;;;;;;5091473;28;20661;-77
2020/12/10 04:37:47;;;;;;;56.77;28.07;;;2.20;99.90;;;;;;5091342;28;20677;-77
2020/12/10 04:40:15;;;;;;;52.20;26.60;;;2.20;99.90;;;;;;5091506;28;20649;-77
2020/12/10 04:42:47;;;;;;;52.67;27.27;;;2.20;99.90;;;;;;5091307;28;20494;-76
2020/12/10 04:45:13;;;;;;;50.77;27.67;;;2.20;99.90;;;;;;5091260;28;20218;-76
2020/12/10 04:47:44;;;;;;;53.77;27.97;;;2.20;99.90;;;;;;5090942;28;20207;-76
2020/12/10 04:50:17;;;;;;;49.73;26.70;;;2.20;99.90;;;;;;5090778;28;20227;-75
2020/12/10 04:52:44;;;;;;;55.03;28.80;;;2.20;99.90;;;;;;5090338;28;20234;-77
2020/12/10 04:55:11;;;;;;;56.93;28.13;;;2.20;99.90;;;;;;5090830;28;20565;-76
2020/12/10 04:57:43;;;;;;;54.07;29.10;;;2.30;99.90;;;;;;5090810;28;20276;-78
2020/12/10 05:00:13;;;;;;;50.90;26.90;;;2.30;99.90;;;;;;5090843;28;20203;-77
2020/12/10 05:02:39;;;;;;;48.33;26.73;;;2.30;99.90;;;;;;5088472;28;20293;-78
2020/12/10 05:05:21;;;;;;;56.20;29.07;;;2.30;99.90;;;;;;5087538;28;20553;-78
2020/12/10 05:07:48;;;;;;;57.80;27.90;;;2.20;99.90;;;;;;5087196;28;20315;-77
2020/12/10 05:10:16;;;;;;;53.57;28.67;;;2.20;99.90;;;;;;5087512;28;20206;-77
2020/12/10 05:12:43;;;;;;;59.47;28.73;;;2.20;99.90;;;;;;5087147;28;20210;-78
2020/12/10 05:15:12;;;;;;;55.73;27.30;;;2.20;99.90;;;;;;5086873;28;20211;-78
2020/12/10 05:17:41;;;;;;;51.80;28.07;;;2.20;99.90;;;;;;5086665;28;20741;-79
2020/12/10 05:20:13;;;;;;;56.10;31.97;;;2.20;99.90;;;;;;5086225;28;20202;-79
2020/12/10 05:22:46;;;;;;;56.53;29.93;;;2.30;99.90;;;;;;5086037;28;20431;-77
2020/12/10 05:25:12;;;;;;;55.90;28.83;;;2.30;99.90;;;;;;5089312;28;20255;-78
2020/12/10 05:27:39;;;;;;;51.77;26.70;;;2.30;99.90;;;;;;5086392;28;20211;-79
2020/12/10 05:30:06;;;;;;;50.90;26.47;;;2.30;99.90;;;;;;5106038;28;20205;-78
2020/12/10 05:32:38;;;;;;;47.93;27.30;;;2.30;99.90;;;;;;5096356;28;20289;-77
2020/12/10 05:35:25;;;;;;;49.43;26.70;;;2.30;99.90;;;;;;5094970;28;20642;-78
2020/12/10 05:37:56;;;;;;;54.20;27.90;;;2.30;99.90;;;;;;5104502;28;20229;-79
2020/12/10 05:40:23;;;;;;;51.27;27.50;;;2.20;99.90;;;;;;5091404;28;20230;-77
2020/12/10 05:42:51;;;;;;;49.07;25.97;;;2.20;99.90;;;;;;5086435;28;20250;-77
2020/12/10 05:45:19;;;;;;;51.17;26.50;;;2.20;99.90;;;;;;5087608;28;20282;-77
2020/12/10 05:47:51;;;;;;;54.00;27.67;;;2.20;99.90;;;;;;5092245;28;20286;-77
2020/12/10 05:50:25;;;;;;;54.30;28.13;;;2.20;99.90;;;;;;5090133;28;20231;-77
2020/12/10 05:53:07;;;;;;;57.43;28.70;;;2.20;99.90;;;;;;5100377;28;20237;-78
2020/12/10 05:55:40;;;;;;;60.43;28.97;;;2.20;99.90;;;;;;5108275;28;20195;-77
2020/12/10 05:58:08;;;;;;;54.37;27.83;;;2.20;99.90;;;;;;5108343;28;20295;-77
2020/12/10 06:00:37;;;;;;;53.73;28.93;;;2.20;99.90;;;;;;5109862;28;20676;-77
2020/12/10 06:03:05;;;;;;;60.93;30.30;;;2.20;99.90;;;;;;5110095;28;20752;-77
2020/12/10 06:05:34;;;;;;;54.10;28.07;;;2.20;99.90;;;;;;5110485;28;20666;-77
2020/12/10 06:08:05;;;;;;;55.97;29.43;;;2.20;99.90;;;;;;5110268;28;20217;-77
2020/12/10 06:10:42;;;;;;;55.00;28.57;;;2.20;99.90;;;;;;5110267;28;20263;-77
2020/12/10 06:13:09;;;;;;;56.90;28.73;;;2.20;99.90;;;;;;5110186;28;20254;-78
2020/12/10 06:15:37;;;;;;;54.20;27.97;;;2.20;99.90;;;;;;5109980;28;20240;-78
2020/12/10 06:18:06;;;;;;;50.37;27.43;;;2.20;99.90;;;;;;5110205;28;20201;-78
2020/12/10 06:20:39;;;;;;;53.50;27.37;;;2.20;99.90;;;;;;5109887;28;20210;-77
2020/12/10 06:23:35;;;;;;;50.43;26.43;;;2.20;99.90;;;;;;5109683;28;20764;-77
2020/12/10 06:26:45;;;;;;;58.37;28.43;;;2.10;99.90;;;;;;5109876;28;20201;-77
2020/12/10 06:29:24;;;;;;;55.63;26.90;;;2.10;99.90;;;;;;5110098;27;20277;-77
2020/12/10 06:32:05;;;;;;;57.87;27.97;;;2.10;99.90;;;;;;5109375;28;20221;-78
2020/12/10 06:34:42;;;;;;;55.27;27.80;;;2.10;99.90;;;;;;5109380;28;20576;-78
2020/12/10 06:37:24;;;;;;;57.57;28.20;;;2.10;99.90;;;;;;5109639;28;20262;-77
2020/12/10 06:39:59;;;;;;;55.47;29.27;;;2.10;99.90;;;;;;5107584;28;20245;-78
2020/12/10 06:42:45;;;;;;;62.50;28.77;;;2.10;99.90;;;;;;5109532;28;20191;-77
2020/12/10 06:45:36;;;;;;;55.83;27.53;;;2.10;99.90;;;;;;5109536;28;20305;-77
2020/12/10 06:48:04;;;;;;;63.60;28.77;;;2.10;99.90;;;;;;5105626;28;20202;-78
2020/12/10 06:50:32;;;;;;;57.57;29.63;;;2.10;99.90;;;;;;5109243;28;20208;-78
2020/12/10 06:53:17;;;;;;;62.43;29.57;;;2.10;99.90;;;;;;5108922;28;20234;-78
2020/12/10 06:56:08;;;;;;;52.57;27.60;;;2.10;99.90;;;;;;5109255;28;20204;-77
2020/12/10 06:58:52;;;;;;;50.50;26.50;;;2.10;99.90;;;;;;5109310;28;20607;-78
2020/12/10 07:01:24;;;;;;;58.90;27.13;;;2.00;99.90;;;;;;5109309;28;20201;-77
2020/12/10 07:03:52;;;;;;;50.43;25.97;;;2.00;99.90;;;;;;5108957;28;20276;-78
2020/12/10 07:06:20;;;;;;;50.53;25.10;;;2.00;99.90;;;;;;5109337;28;20202;-78
2020/12/10 07:09:03;;;;;;;47.50;25.67;;;2.10;99.90;;;;;;5108746;28;20215;-77
2020/12/10 07:11:31;;;;;;;48.40;25.33;;;2.10;99.90;;;;;;5108890;28;20271;-77
2020/12/10 07:13:58;;;;;;;52.00;26.27;;;2.20;99.90;;;;;;5109034;28;20214;-77
2020/12/10 07:16:32;;;;;;;52.53;25.90;;;2.20;99.90;;;;;;5109148;28;20197;-78
2020/12/10 07:18:59;;;;;;;51.60;25.53;;;2.30;99.90;;;;;;5109245;28;20191;-78
2020/12/10 07:21:26;;;;;;;53.63;26.87;;;2.20;99.90;;;;;;5108708;28;20228;-78
2020/12/10 07:23:53;;;;;;;50.47;27.80;;;2.20;99.90;;;;;;5108829;28;20312;-78
2020/12/10 07:26:19;;;;;;;53.13;27.07;;;2.20;99.90;;;;;;5108899;28;20256;-78
2020/12/10 07:28:47;;;;;;;50.97;26.33;;;2.20;99.90;;;;;;5108795;28;20252;-78
2020/12/10 07:31:15;;;;;;;52.70;27.23;;;2.20;99.90;;;;;;5108841;28;20243;-77
2020/12/10 07:33:42;;;;;;;54.63;27.83;;;2.10;99.90;;;;;;5108728;28;20713;-77
2020/12/10 07:36:09;;;;;;;57.93;27.00;;;2.10;99.90;;;;;;5109063;28;20206;-78
2020/12/10 07:38:36;;;;;;;55.37;27.90;;;2.10;99.90;;;;;;5108679;28;20263;-79
2020/12/10 07:41:02;;;;;;;54.70;26.67;;;2.10;99.90;;;;;;5108706;28;20596;-77
2020/12/10 07:43:29;;;;;;;56.60;27.93;;;2.10;99.90;;;;;;5109894;28;20225;-77
2020/12/10 07:45:59;;;;;;;55.20;27.40;;;2.10;99.90;;;;;;5105606;28;20198;-78
2020/12/10 07:48:25;;;;;;;51.37;25.53;;;2.10;99.90;;;;;;5092050;28;20795;-77
2020/12/10 07:50:53;;;;;;;49.17;24.87;;;2.10;99.90;;;;;;5092602;28;20594;-78
2020/12/10 07:53:20;;;;;;;47.20;24.37;;;2.10;99.90;;;;;;5092245;28;20311;-78
2020/12/10 07:55:54;;;;;;;46.20;24.80;;;2.10;99.90;;;;;;5092066;28;20209;-78
2020/12/10 07:58:33;;;;;;;46.57;23.00;;;2.10;99.90;;;;;;5092631;28;20218;-77
2020/12/10 08:01:04;;;;;;;45.93;23.43;;;2.10;99.90;;;;;;5092041;28;20663;-78
2020/12/10 08:03:46;;;;;;;48.20;23.57;;;2.10;99.90;;;;;;5092140;28;20229;-77
2020/12/10 08:06:14;;;;;;;46.63;23.70;;;2.20;99.90;;;;;;5092038;28;20190;-77
2020/12/10 08:08:44;;;;;;;47.27;24.80;;;2.20;99.90;;;;;;5091970;28;20209;-78
2020/12/10 08:11:17;;;;;;;50.37;24.20;;;2.10;99.90;;;;;;5092151;28;20210;-77
2020/12/10 08:14:02;;;;;;;46.17;24.40;;;2.10;99.90;;;;;;5091902;28;20202;-78
2020/12/10 08:16:40;;;;;;;53.50;24.53;;;2.10;99.90;;;;;;5092246;28;20270;-78
2020/12/10 08:19:12;;;;;;;48.43;25.40;;;2.10;99.90;;;;;;5091798;28;20215;-78
2020/12/10 08:21:39;;;;;;;50.20;24.60;;;2.00;99.90;;;;;;5092001;28;20211;-77
2020/12/10 08:24:05;;;;;;;49.77;25.30;;;2.10;99.90;;;;;;5091578;28;20273;-78
2020/12/10 08:26:33;;;;;;;47.50;24.77;;;2.10;99.90;;;;;;5091730;28;20199;-78
2020/12/10 08:29:01;;;;;;;53.33;25.40;;;2.10;99.90;;;;;;5091471;28;20207;-78
2020/12/10 08:31:34;;;;;;;48.10;25.00;;;2.10;99.90;;;;;;5092037;28;20237;-78
2020/12/10 08:34:02;;;;;;;46.27;23.50;;;2.10;99.90;;;;;;5091666;28;20666;-77
2020/12/10 08:36:37;;;;;;;49.97;24.23;;;2.10;99.90;;;;;;5091444;28;20209;-77
2020/12/10 08:39:07;;;;;;;43.67;24.27;;;2.10;99.90;;;;;;5091372;28;20506;-77
2020/12/10 08:41:37;;;;;;;46.90;24.63;;;2.10;99.90;;;;;;5091543;28;20611;-78
2020/12/10 08:44:05;;;;;;;42.63;22.77;;;2.10;99.90;;;;;;5091605;28;20233;-78
2020/12/10 08:46:33;;;;;;;42.53;23.23;;;2.10;99.90;;;;;;5091426;28;20798;-78
2020/12/10 08:49:15;;;;;;;44.23;22.20;;;2.10;99.90;;;;;;5091403;28;20206;-77
2020/12/10 08:51:42;;;;;;;44.50;22.97;;;2.20;99.90;;;;;;5091348;28;20237;-78
2020/12/10 08:54:12;;;;;;;45.67;22.77;;;2.10;99.90;;;;;;5090205;28;20633;-77
2020/12/10 08:56:41;;;;;;;45.57;23.17;;;2.20;99.90;;;;;;5090951;28;20207;-78
2020/12/10 08:59:13;;;;;;;41.47;21.87;;;2.20;99.90;;;;;;5090993;28;20210;-77
2020/12/10 09:01:52;;;;;;;42.93;22.60;;;2.20;99.90;;;;;;5090835;28;20213;-78
2020/12/10 09:04:20;;;;;;;41.30;22.20;;;2.20;99.90;;;;;;5091093;28;20230;-78
2020/12/10 09:06:48;;;;;;;41.47;22.50;;;2.20;99.90;;;;;;5090793;28;20583;-77
2020/12/10 09:09:18;;;;;;;41.60;22.27;;;2.20;99.90;;;;;;5090939;28;20214;-77
2020/12/10 09:11:49;;;;;;;41.80;21.80;;;2.20;99.90;;;;;;5090626;28;20207;-78
2020/12/10 09:14:18;;;;;;;39.40;21.43;;;2.20;99.90;;;;;;5090809;28;20678;-78
2020/12/10 09:16:48;;;;;;;38.07;21.40;;;2.20;99.90;;;;;;5090330;28;20206;-78
2020/12/10 09:19:15;;;;;;;42.90;22.60;;;2.30;99.90;;;;;;5090491;28;20203;-77
2020/12/10 09:21:42;;;;;;;42.77;21.80;;;2.30;99.90;;;;;;5090392;28;20234;-77
2020/12/10 09:24:12;;;;;;;39.87;23.17;;;2.30;99.90;;;;;;5090514;28;20324;-78
2020/12/10 09:26:42;;;;;;;42.17;22.17;;;2.30;99.90;;;;;;5090442;28;20225;-77
2020/12/10 09:29:11;;;;;;;40.03;21.07;;;2.30;99.90;;;;;;5090648;28;20670;-78
2020/12/10 09:31:38;;;;;;;43.67;22.70;;;2.30;99.90;;;;;;5090407;28;20230;-77
2020/12/10 09:34:08;;;;;;;45.33;24.20;;;2.30;99.90;;;;;;5090483;28;20217;-78
2020/12/10 09:36:35;;;;;;;47.27;23.93;;;2.20;99.90;;;;;;5090416;28;20240;-78
2020/12/10 09:39:06;;;;;;;44.77;22.53;;;2.30;99.90;;;;;;5090620;28;20205;-78
2020/12/10 09:41:33;;;;;;;43.67;22.40;;;2.30;99.90;;;;;;5090417;28;20649;-78
2020/12/10 09:44:01;;;;;;;41.73;22.80;;;2.40;99.90;;;;;;5090169;28;20226;-77
2020/12/10 09:46:35;;;;;;;43.33;22.73;;;2.40;99.90;;;;;;5090155;28;20214;-78
2020/12/10 09:49:03;;;;;;;46.10;23.37;;;2.40;99.90;;;;;;5090110;28;20194;-78
2020/12/10 09:51:35;;;;;;;42.77;23.30;;;2.40;99.90;;;;;;5089738;28;20310;-77
2020/12/10 09:54:07;;;;;;;45.50;23.10;;;2.40;99.90;;;;;;5089917;28;20230;-78
2020/12/10 09:56:56;;;;;;;43.87;23.63;;;2.40;99.90;;;;;;5089848;28;20231;-78
2020/12/10 09:59:26;;;;;;;42.80;22.70;;;2.40;99.90;;;;;;5089946;28;20646;-78
2020/12/10 10:02:03;;;;;;;46.07;23.27;;;2.30;99.90;;;;;;5089824;28;20214;-78
2020/12/10 10:04:31;;;;;;;44.57;22.67;;;2.40;99.90;;;;;;5089668;28;20305;-78
2020/12/10 10:06:59;;;;;;;51.77;25.27;;;2.40;99.90;;;;;;5088809;28;20569;-78
2020/12/10 10:09:27;;;;;;;47.37;23.53;;;2.30;99.90;;;;;;5089318;28;20207;-77
2020/12/10 10:11:58;;;;;;;46.67;24.40;;;2.30;99.90;;;;;;5089613;28;20207;-78
2020/12/10 10:14:26;;;;;;;52.53;23.87;;;2.30;99.90;;;;;;5089628;28;20191;-78
2020/12/10 10:16:54;;;;;;;48.67;25.23;;;2.20;99.90;;;;;;5089476;28;20203;-77
2020/12/10 10:19:22;;;;;;;49.00;24.13;;;2.30;99.90;;;;;;5089217;28;20198;-77
2020/12/10 10:21:50;;;;;;;49.53;26.37;;;2.20;99.90;;;;;;5089663;28;20257;-78
2020/12/10 10:24:17;;;;;;;51.87;26.87;;;2.20;99.90;;;;;;5089486;28;20752;-78
2020/12/10 10:26:45;;;;;;;53.23;26.53;;;2.20;99.90;;;;;;5089173;28;20203;-78
2020/12/10 10:29:18;;;;;;;47.30;24.53;;;2.20;99.90;;;;;;5089250;28;20214;-77
2020/12/10 10:31:48;;;;;;;52.67;27.13;;;2.20;99.90;;;;;;5089024;28;20649;-78
2020/12/10 10:34:16;;;;;;;54.20;26.63;;;2.10;99.90;;;;;;5089814;28;20199;-78
2020/12/10 10:36:52;;;;;;;51.13;25.13;;;2.10;99.90;;;;;;5088836;28;20650;-77
2020/12/10 10:39:37;;;;;;;52.53;25.43;;;2.10;99.90;;;;;;5089150;28;20194;-77
2020/12/10 10:42:08;;;;;;;49.03;24.03;;;2.10;99.90;;;;;;5089177;28;20641;-77
2020/12/10 10:44:36;;;;;;;55.07;25.73;;;2.00;99.90;;;;;;5088956;28;20230;-77
2020/12/10 10:47:04;;;;;;;55.07;26.50;;;2.00;99.90;;;;;;5089165;28;20665;-77
2020/12/10 10:49:32;;;;;;;54.10;25.53;;;2.00;99.90;;;;;;5088546;28;20211;-78
2020/12/10 10:52:01;;;;;;;58.73;26.30;;;2.10;99.90;;;;;;5088634;28;20226;-78
2020/12/10 10:54:28;;;;;;;63.00;28.27;;;2.00;99.90;;;;;;5088695;28;20230;-77
2020/12/10 10:56:58;;;;;;;57.03;27.47;;;2.00;99.90;;;;;;5088652;28;20677;-78
2020/12/10 10:59:26;;;;;;;53.60;26.63;;;2.00;99.90;;;;;;5088856;28;20206;-77
2020/12/10 11:01:56;;;;;;;56.63;27.33;;;2.00;99.90;;;;;;5088816;28;20209;-78
2020/12/10 11:04:24;;;;;;;58.13;26.07;;;2.00;99.90;;;;;;5088575;28;20258;-78
2020/12/10 11:06:52;;;;;;;55.83;27.03;;;2.00;99.90;;;;;;5088490;28;20641;-78
2020/12/10 11:09:21;;;;;;;55.50;25.40;;;1.90;99.90;;;;;;5088517;28;20268;-77
2020/12/10 11:11:52;;;;;;;56.63;26.73;;;1.90;99.90;;;;;;5088456;28;20202;-77
2020/12/10 11:14:20;;;;;;;50.13;25.23;;;2.00;99.90;;;;;;5088789;28;20230;-78
2020/12/10 11:16:55;;;;;;;59.97;26.53;;;1.90;99.90;;;;;;5088145;28;20846;-78
2020/12/10 11:19:23;;;;;;;53.83;27.23;;;1.90;99.90;;;;;;5088789;28;20251;-77
2020/12/10 11:21:51;;;;;;;59.43;27.87;;;1.90;99.90;;;;;;5088399;28;20210;-78
2020/12/10 11:24:20;;;;;;;59.93;27.03;;;2.00;99.90;;;;;;5086783;28;20309;-77
2020/12/10 11:26:52;;;;;;;57.17;26.87;;;2.00;99.90;;;;;;5088284;28;20222;-78
2020/12/10 11:29:23;;;;;;;58.67;26.37;;;2.00;99.90;;;;;;5088447;28;20638;-78
2020/12/10 11:31:53;;;;;;;57.60;26.53;;;2.00;99.90;;;;;;5088128;28;20195;-77
2020/12/10 11:34:21;;;;;;;57.03;26.63;;;2.00;99.90;;;;;;5088741;28;20241;-77
2020/12/10 11:36:52;;;;;;;56.73;26.53;;;2.00;99.90;;;;;;5088449;28;20205;-78
2020/12/10 11:39:21;;;;;;;56.87;26.00;;;2.10;99.90;;;;;;5088158;28;20222;-78
2020/12/10 11:41:49;;;;;;;57.23;26.23;;;2.10;99.90;;;;;;5088031;28;20293;-77
2020/12/10 11:44:16;;;;;;;52.47;24.93;;;2.10;99.90;;;;;;5088238;28;20229;-78
2020/12/10 11:46:47;;;;;;;56.43;25.63;;;2.10;99.90;;;;;;5088301;28;20206;-78
2020/12/10 11:49:15;;;;;;;57.37;25.47;;;2.10;99.90;;;;;;5088153;28;20201;-77
2020/12/10 11:51:43;;;;;;;50.17;23.80;;;2.00;99.90;;;;;;5087917;28;20305;-78
2020/12/10 11:54:11;;;;;;;46.83;23.40;;;2.10;99.90;;;;;;5086772;28;20234;-77
2020/12/10 11:56:43;;;;;;;48.33;23.57;;;2.10;99.90;;;;;;5088158;28;20238;-78
2020/12/10 11:59:11;;;;;;;50.97;24.97;;;2.10;99.90;;;;;;5088417;28;20741;-78
2020/12/10 12:01:40;;;;;;;47.83;23.33;;;2.10;99.90;;;;;;5088205;28;20211;-78
2020/12/10 12:04:08;;;;;;;47.90;24.30;;;2.10;99.90;;;;;;5088464;28;20603;-78
2020/12/10 12:06:36;;;;;;;47.27;24.20;;;2.10;99.90;;;;;;5088137;28;20207;-78
2020/12/10 12:09:04;;;;;;;55.90;25.27;;;2.30;99.90;;;;;;5087873;28;20249;-78
2020/12/10 12:11:32;;;;;;;52.17;25.10;;;2.30;99.90;;;;;;5086644;28;20692;-77
2020/12/10 12:14:01;;;;;;;51.10;24.93;;;2.30;99.90;;;;;;5087879;28;20217;-78
2020/12/10 12:16:29;;;;;;;54.37;25.30;;;2.30;99.90;;;;;;5087962;28;20681;-77
2020/12/10 12:19:00;;;;;;;54.27;25.37;;;2.20;99.90;;;;;;5087838;28;20245;-77
2020/12/10 12:21:32;;;;;;;58.23;25.53;;;2.20;99.90;;;;;;5088073;28;20253;-78
2020/12/10 12:24:00;;;;;;;51.93;24.97;;;2.20;99.90;;;;;;5087715;28;20218;-78
2020/12/10 12:26:33;;;;;;;56.47;24.80;;;2.10;99.90;;;;;;5087911;28;20260;-77
2020/12/10 12:29:02;;;;;;;49.67;24.40;;;2.10;99.90;;;;;;5088349;28;20242;-78
2020/12/10 12:31:34;;;;;;;53.93;24.03;;;2.10;99.90;;;;;;5091870;28;20293;-78
2020/12/10 12:34:02;;;;;;;51.37;24.77;;;2.10;99.90;;;;;;5091468;28;20214;-78
2020/12/10 12:36:30;;;;;;;54.07;23.77;;;2.20;99.90;;;;;;5091578;28;20675;-78
2020/12/10 12:38:58;;;;;;;54.13;24.43;;;2.20;99.90;;;;;;5089881;28;20669;-77
2020/12/10 12:41:47;;;;;;;55.67;24.60;;;2.10;99.90;;;;;;5091398;28;20203;-78
2020/12/10 12:44:16;;;;;;;53.17;25.07;;;2.10;99.90;;;;;;5091140;28;20218;-77
2020/12/10 12:46:48;;;;;;;52.33;24.23;;;2.10;99.90;;;;;;5090632;28;20229;-77
2020/12/10 12:49:16;;;;;;;50.50;23.03;;;2.10;99.90;;;;;;5091347;28;20191;-77
2020/12/10 12:51:51;;;;;;;43.63;21.47;;;2.10;99.90;;;;;;5091105;28;20218;-78